Strona główna
METAR-TAF:

METAR-TAF

Lotnisko :

Wattisham, Anglia

Szerokość geograficzna: 52-07N, Długość geograficzna: 000-58E, wysokość: 87 m

Aktualna obserwacja pogody

Raport powstał 35 minut temu, godzina 11:20 UTC
Wiatr 7 kt od południowo-południowy zachód
Temperatura 7°C
Wilgotność 87%
Ciśnienie 1001 hPa
Widzialność 10 km lub więcej
Brak chmur poniżej 1500 m i brak chmur cumulonimbus

METAR: EGUW 161120Z 21007KT CAVOK 07/05 Q1001 NOSIG RMK BLU BLU

czas: 11:55 (11:55 UTC)

Prognoza

Raport powstał 1 godzina i 24 minut temu, godzina 10:31 UTC
Prognoza ważna od 16 godzina 12 UTC do 16 godzina 21 UTC
Wiatr 8 kt od południe
Widzialność 10 km lub więcej
Mało chmury na wysokości 2500 ft

TAF: EGUW 161031Z 1612/1621 19008KT 9999 FEW025

Obserwacja i prognoza pogody dla ponad 4000 lotnisk (raport METAR i TAF).

Dostępne stacje oznaczono żółtymi i czerwonymi punktami na mapie.

Najedź kursorem aby zobaczyć nazwę stacji.

Kliknij aby zobaczyć obserwacje i prognozy pogody.

Aby zmienić mapę: kliknij na zielony przycisk z czarnym krzyżykiem, aby powiększyć; na zielony przycisk z myślnikiem, aby pomniejszyć; na zielone strzałki, aby przejść do map sąsiednich.


METAR-TAF: